Time;durP1;ratioP1;P1;durP2;ratioP2;P2;SDS_P1;SDS_P2;PMS_P1;PMS_P2;Temp;Humidity;BMP_temperature;BMP_pressure;BME280_temperature;BME280_humidity;BME280_pressure;Samples;Min_cycle;Max_cycle;Signal;HPM_P1;HPM_P2
2021/11/13 00:02:04;;;;;;;20.23;6.82;;;6.50;99.90;;;;;;5044770;28;20025;-76
2021/11/13 00:04:30;;;;;;;20.95;7.80;;;6.50;99.90;;;;;;5044973;28;20029;-75
2021/11/13 00:06:56;;;;;;;18.33;8.73;;;6.60;99.90;;;;;;5044587;28;20029;-76
2021/11/13 00:09:21;;;;;;;22.80;8.52;;;6.60;99.90;;;;;;5046200;28;20033;-82
2021/11/13 00:11:47;;;;;;;15.70;7.60;;;6.60;99.90;;;;;;5026873;28;20030;-73
2021/11/13 00:14:17;;;;;;;18.88;8.30;;;6.60;99.90;;;;;;5032651;28;20037;-75
2021/11/13 00:16:43;;;;;;;21.15;7.97;;;6.60;99.90;;;;;;5045943;28;20048;-74
2021/11/13 00:19:09;;;;;;;33.50;8.65;;;6.70;99.90;;;;;;5044586;28;20033;-75
2021/11/13 00:21:34;;;;;;;20.85;8.75;;;6.70;99.90;;;;;;5045698;28;20085;-73
2021/11/13 00:24:00;;;;;;;18.55;7.55;;;6.70;99.90;;;;;;5045784;28;20026;-77
2021/11/13 00:26:27;;;;;;;16.98;8.05;;;6.70;99.90;;;;;;5045871;28;20025;-75
2021/11/13 00:28:53;;;;;;;20.35;8.70;;;6.70;99.90;;;;;;5045839;28;20033;-78
2021/11/13 00:31:18;;;;;;;21.50;8.32;;;6.80;99.90;;;;;;5043949;28;20414;-76
2021/11/13 00:33:44;;;;;;;19.23;8.20;;;6.80;99.90;;;;;;5044358;28;20493;-77
2021/11/13 00:36:09;;;;;;;19.02;7.72;;;6.80;99.90;;;;;;5044308;28;20028;-75
2021/11/13 00:38:35;;;;;;;15.75;6.80;;;6.80;99.90;;;;;;5045631;28;20028;-75
2021/11/13 00:41:01;;;;;;;19.85;8.77;;;6.80;99.90;;;;;;5045291;28;20048;-76
2021/11/13 00:43:27;;;;;;;19.92;8.13;;;6.90;99.90;;;;;;5044310;28;20027;-76
2021/11/13 00:45:53;;;;;;;16.65;6.93;;;6.90;99.90;;;;;;5044246;28;20133;-75
2021/11/13 00:48:19;;;;;;;18.60;7.18;;;6.90;99.90;;;;;;5045380;28;20041;-75
2021/11/13 00:50:45;;;;;;;16.25;7.53;;;6.90;99.90;;;;;;5045313;28;20505;-74
2021/11/13 00:53:11;;;;;;;17.67;7.43;;;6.90;99.90;;;;;;5045468;28;20030;-75
2021/11/13 00:55:37;;;;;;;22.13;7.07;;;6.90;99.90;;;;;;5045154;28;20032;-74
2021/11/13 00:58:02;;;;;;;16.40;6.40;;;6.90;99.90;;;;;;5044060;28;20025;-76
2021/11/13 01:00:28;;;;;;;20.13;8.02;;;7.00;99.90;;;;;;5045146;28;20025;-77
2021/11/13 01:02:54;;;;;;;19.48;6.85;;;7.00;99.90;;;;;;5045166;28;20021;-75
2021/11/13 01:05:20;;;;;;;23.08;8.52;;;7.00;99.90;;;;;;5043690;28;20036;-76
2021/11/13 01:07:46;;;;;;;15.73;6.38;;;7.00;99.90;;;;;;5044819;28;20029;-75
2021/11/13 01:10:14;;;;;;;16.65;7.70;;;7.00;99.90;;;;;;5044938;28;20025;-76
2021/11/13 01:12:40;;;;;;;18.58;7.32;;;6.90;99.90;;;;;;5044790;28;20097;-75
2021/11/13 01:15:08;;;;;;;14.05;6.15;;;7.00;99.90;;;;;;5044832;28;20033;-75
2021/11/13 01:17:35;;;;;;;22.52;7.50;;;7.00;99.90;;;;;;5042984;28;20029;-75
2021/11/13 01:20:01;;;;;;;18.65;8.32;;;7.00;99.90;;;;;;5043730;28;20032;-76
2021/11/13 01:22:26;;;;;;;28.95;8.40;;;7.10;99.90;;;;;;5043441;28;20025;-73
2021/11/13 01:24:52;;;;;;;16.98;7.70;;;7.20;99.90;;;;;;5044794;28;20094;-77
2021/11/13 01:27:18;;;;;;;18.77;7.32;;;7.10;99.90;;;;;;5044712;28;20068;-75
2021/11/13 01:29:44;;;;;;;19.00;8.98;;;7.10;99.90;;;;;;5043238;28;20041;-76
2021/11/13 01:32:10;;;;;;;14.40;6.18;;;7.10;99.90;;;;;;5043543;28;20462;-74
2021/11/13 01:34:39;;;;;;;24.35;7.68;;;7.10;99.90;;;;;;5044611;28;20030;-74
2021/11/13 01:37:06;;;;;;;16.73;7.25;;;7.10;99.90;;;;;;5044574;28;20037;-75
2021/11/13 01:39:32;;;;;;;20.40;8.18;;;7.10;99.90;;;;;;5043151;28;20025;-75
2021/11/13 01:41:59;;;;;;;16.67;7.38;;;7.20;99.90;;;;;;5050445;28;20068;-77
2021/11/13 01:44:25;;;;;;;20.70;7.68;;;7.10;99.90;;;;;;5055991;28;20022;-74
2021/11/13 01:46:51;;;;;;;19.83;6.93;;;7.20;99.90;;;;;;5038713;28;20333;-75
2021/11/13 01:49:18;;;;;;;13.98;6.55;;;7.20;99.90;;;;;;5024709;28;20045;-75
2021/11/13 01:51:46;;;;;;;21.23;6.65;;;7.10;99.90;;;;;;5033374;28;20112;-75
2021/11/13 01:54:12;;;;;;;21.65;6.63;;;7.10;99.90;;;;;;5044429;28;20032;-74
2021/11/13 01:56:39;;;;;;;14.15;6.75;;;7.20;99.90;;;;;;5044391;28;20049;-76
2021/11/13 01:59:07;;;;;;;22.88;7.05;;;7.20;99.90;;;;;;5027817;28;20117;-73
2021/11/13 02:01:34;;;;;;;21.52;7.50;;;7.20;99.90;;;;;;5031481;28;20056;-75
2021/11/13 02:03:59;;;;;;;20.80;7.30;;;7.10;99.90;;;;;;5043279;28;20033;-75
2021/11/13 02:06:26;;;;;;;17.30;6.93;;;7.10;99.90;;;;;;5043307;28;20029;-75
2021/11/13 02:08:52;;;;;;;17.05;6.50;;;7.10;99.90;;;;;;5044129;28;20271;-75
2021/11/13 02:11:21;;;;;;;12.15;5.88;;;7.10;99.90;;;;;;5044258;28;20038;-75
2021/11/13 02:13:48;;;;;;;18.60;6.82;;;7.10;99.90;;;;;;5044312;28;20426;-76
2021/11/13 02:16:14;;;;;;;20.20;6.55;;;7.10;99.90;;;;;;5042811;28;20022;-74
2021/11/13 02:18:41;;;;;;;15.88;6.88;;;7.10;99.90;;;;;;5044100;28;20108;-74
2021/11/13 02:21:09;;;;;;;16.77;6.78;;;7.10;99.90;;;;;;5044106;28;20055;-76
2021/11/13 02:23:36;;;;;;;19.42;7.38;;;7.10;99.90;;;;;;5042874;28;20048;-74
2021/11/13 02:26:03;;;;;;;16.70;6.25;;;7.10;99.90;;;;;;5043133;28;20026;-74
2021/11/13 02:28:36;;;;;;;14.65;6.88;;;7.10;99.90;;;;;;5043986;28;20037;-75
2021/11/13 02:31:07;;;;;;;18.45;7.10;;;7.10;99.90;;;;;;5043847;28;20057;-76
2021/11/13 02:33:36;;;;;;;17.15;7.70;;;7.10;99.90;;;;;;5028247;28;20064;-75
2021/11/13 02:36:04;;;;;;;19.95;7.65;;;7.10;99.90;;;;;;5028064;28;20026;-75
2021/11/13 02:38:33;;;;;;;16.25;7.15;;;7.10;99.90;;;;;;5027933;28;20057;-76
2021/11/13 02:41:00;;;;;;;16.45;7.35;;;7.10;99.90;;;;;;5026830;28;20018;-74
2021/11/13 02:43:29;;;;;;;15.88;7.38;;;7.10;99.90;;;;;;5027986;28;20053;-75
2021/11/13 02:45:57;;;;;;;19.48;6.75;;;7.00;99.90;;;;;;5028012;28;20025;-74
2021/11/13 02:48:25;;;;;;;22.38;7.05;;;7.00;99.90;;;;;;5027868;28;20084;-75
2021/11/13 02:50:58;;;;;;;22.85;7.68;;;7.00;99.90;;;;;;5027806;28;20030;-75
2021/11/13 02:53:30;;;;;;;19.65;8.20;;;7.00;99.90;;;;;;5038800;28;20081;-75
2021/11/13 02:56:00;;;;;;;17.30;7.38;;;7.00;99.90;;;;;;5046429;28;20025;-77
2021/11/13 02:58:26;;;;;;;23.20;8.80;;;7.00;99.90;;;;;;5047662;28;20034;-74
2021/11/13 03:00:59;;;;;;;16.92;7.05;;;7.00;99.90;;;;;;5047164;28;20025;-74
2021/11/13 03:03:26;;;;;;;15.10;6.53;;;7.00;99.90;;;;;;5046057;28;20042;-75
2021/11/13 03:05:55;;;;;;;15.85;7.18;;;7.00;99.90;;;;;;5047415;28;20049;-75
2021/11/13 03:08:26;;;;;;;19.70;7.50;;;7.00;99.90;;;;;;5045741;28;20845;-75
2021/11/13 03:10:54;;;;;;;18.30;7.05;;;7.00;99.90;;;;;;5045766;28;20029;-74
2021/11/13 03:13:27;;;;;;;19.05;7.82;;;7.00;99.90;;;;;;5047230;28;20056;-76
2021/11/13 03:15:53;;;;;;;18.13;7.80;;;7.00;99.90;;;;;;5043018;28;20022;-75
2021/11/13 03:18:19;;;;;;;17.80;7.25;;;7.00;99.90;;;;;;5029731;28;20065;-76
2021/11/13 03:20:45;;;;;;;18.30;7.25;;;7.00;99.90;;;;;;5045701;28;20029;-76
2021/11/13 03:23:11;;;;;;;18.98;7.22;;;7.10;99.90;;;;;;5045657;28;20025;-76
2021/11/13 03:25:40;;;;;;;19.48;6.75;;;7.10;99.90;;;;;;5045406;28;20501;-76
2021/11/13 03:28:11;;;;;;;20.05;6.20;;;7.10;99.90;;;;;;5040994;28;20419;-75
2021/11/13 03:30:38;;;;;;;20.73;7.32;;;7.10;99.90;;;;;;5026873;28;20057;-74
2021/11/13 03:33:04;;;;;;;14.95;7.10;;;7.10;99.90;;;;;;5027062;28;20033;-75
2021/11/13 03:35:30;;;;;;;18.10;7.20;;;7.10;99.90;;;;;;5027201;28;20022;-73
2021/11/13 03:38:16;;;;;;;15.18;5.82;;;7.10;99.90;;;;;;5026366;28;20120;-75
2021/11/13 03:40:45;;;;;;;18.75;6.90;;;7.10;99.90;;;;;;5025483;28;20093;-72
2021/11/13 03:43:12;;;;;;;18.05;6.90;;;7.10;99.90;;;;;;5026989;28;20026;-76
2021/11/13 03:45:38;;;;;;;18.80;6.47;;;7.10;99.90;;;;;;5026978;28;20034;-75
2021/11/13 03:48:04;;;;;;;16.25;6.90;;;7.10;99.90;;;;;;5025380;28;20041;-74
2021/11/13 03:50:34;;;;;;;18.45;6.25;;;7.10;99.90;;;;;;5026847;28;20022;-77
2021/11/13 03:53:00;;;;;;;16.27;6.40;;;7.10;99.90;;;;;;5025415;28;20022;-74
2021/11/13 03:55:28;;;;;;;23.05;7.60;;;7.10;99.90;;;;;;5026734;28;20091;-75
2021/11/13 03:57:54;;;;;;;20.42;7.30;;;7.10;99.90;;;;;;5042134;28;20099;-74
2021/11/13 04:00:22;;;;;;;17.50;8.15;;;7.10;99.90;;;;;;5026808;28;20181;-74
2021/11/13 04:02:51;;;;;;;13.90;6.68;;;7.10;99.90;;;;;;5041189;28;20086;-74
2021/11/13 04:05:18;;;;;;;16.02;6.25;;;7.10;99.90;;;;;;5035805;28;20489;-75
2021/11/13 04:07:44;;;;;;;17.38;6.93;;;7.10;99.90;;;;;;5044464;28;20148;-74
2021/11/13 04:10:12;;;;;;;22.38;7.05;;;7.00;99.90;;;;;;5045922;28;20026;-74
2021/11/13 04:12:41;;;;;;;18.95;7.38;;;7.00;99.90;;;;;;5044456;28;20108;-75
2021/11/13 04:15:08;;;;;;;17.02;6.80;;;7.00;99.90;;;;;;5045746;28;20037;-74
2021/11/13 04:17:33;;;;;;;14.63;6.55;;;7.00;99.90;;;;;;5044336;28;20025;-75
2021/11/13 04:19:59;;;;;;;16.15;7.00;;;7.00;99.90;;;;;;5044628;28;20124;-77
2021/11/13 04:22:25;;;;;;;19.17;7.82;;;7.00;99.90;;;;;;5046140;28;20032;-75
2021/11/13 04:24:54;;;;;;;15.07;6.38;;;7.00;99.90;;;;;;5044595;28;20035;-79
2021/11/13 04:27:20;;;;;;;12.07;6.15;;;7.00;99.90;;;;;;5045626;28;20037;-74
2021/11/13 04:29:47;;;;;;;17.23;7.63;;;7.00;99.90;;;;;;5044142;28;20059;-76
2021/11/13 04:32:16;;;;;;;18.20;7.30;;;7.00;99.90;;;;;;5045533;28;20477;-75
2021/11/13 04:37:31;;;;;;;18.75;7.55;;;7.00;99.90;;;;;;5026220;28;20048;-76
2021/11/13 04:39:57;;;;;;;26.00;7.57;;;7.00;99.90;;;;;;5044332;28;20030;-75
2021/11/13 04:42:23;;;;;;;13.73;6.60;;;7.00;99.90;;;;;;5044374;28;20037;-75
2021/11/13 04:44:49;;;;;;;23.38;6.80;;;7.00;99.90;;;;;;5045372;28;20100;-76
2021/11/13 04:47:17;;;;;;;17.40;7.57;;;7.00;99.90;;;;;;5045364;28;20030;-76
2021/11/13 04:49:43;;;;;;;16.90;7.32;;;7.00;99.90;;;;;;5045278;28;20089;-78
2021/11/13 04:52:09;;;;;;;16.73;7.55;;;6.90;99.90;;;;;;5043421;28;20026;-75
2021/11/13 04:54:35;;;;;;;16.40;8.25;;;7.00;99.90;;;;;;5043459;28;20120;-76
2021/11/13 04:57:02;;;;;;;20.13;8.52;;;7.00;99.90;;;;;;5044082;28;20025;-76
2021/11/13 04:59:28;;;;;;;23.58;8.52;;;7.00;99.90;;;;;;5044091;28;20025;-75
2021/11/13 05:01:53;;;;;;;24.60;7.57;;;7.00;99.90;;;;;;5045239;28;20029;-74
2021/11/13 05:04:19;;;;;;;23.38;7.65;;;7.00;99.90;;;;;;5044669;28;20030;-75
2021/11/13 05:06:45;;;;;;;19.38;7.50;;;7.00;99.90;;;;;;5043540;28;20049;-74
2021/11/13 05:09:10;;;;;;;17.10;7.50;;;7.10;99.90;;;;;;5045005;28;20094;-76
2021/11/13 05:11:36;;;;;;;14.23;6.35;;;7.00;99.90;;;;;;5043558;28;20390;-77
2021/11/13 05:14:02;;;;;;;18.77;8.35;;;7.10;99.90;;;;;;5043552;28;20029;-78
2021/11/13 05:16:28;;;;;;;18.55;7.75;;;7.10;99.90;;;;;;5044996;28;20026;-76
2021/11/13 05:18:53;;;;;;;25.55;8.65;;;7.10;99.90;;;;;;5043630;28;20032;-78
2021/11/13 05:21:19;;;;;;;18.92;7.15;;;7.10;99.90;;;;;;5043487;28;20112;-78
2021/11/13 05:23:45;;;;;;;23.13;8.45;;;7.10;99.90;;;;;;5044409;28;20025;-76
2021/11/13 05:26:10;;;;;;;18.83;8.73;;;7.10;99.90;;;;;;5044772;28;20048;-77
2021/11/13 05:28:36;;;;;;;17.13;8.23;;;7.10;99.90;;;;;;5043171;28;20500;-76
2021/11/13 05:31:03;;;;;;;28.27;7.72;;;7.10;99.90;;;;;;5043189;28;20060;-74
2021/11/13 05:33:29;;;;;;;18.40;8.02;;;7.10;99.90;;;;;;5043424;28;20021;-75
2021/11/13 05:35:59;;;;;;;23.17;7.97;;;7.20;99.90;;;;;;5045140;28;20030;-75
2021/11/13 05:38:25;;;;;;;18.05;7.72;;;7.20;99.90;;;;;;5044842;28;20055;-77
2021/11/13 05:41:04;;;;;;;17.90;7.38;;;7.20;99.90;;;;;;5044633;28;20045;-78
2021/11/13 05:43:39;;;;;;;24.90;8.00;;;7.20;99.90;;;;;;5043199;28;20037;-75
2021/11/13 05:46:05;;;;;;;21.67;7.22;;;7.10;99.90;;;;;;5043245;28;20025;-77
2021/11/13 05:48:31;;;;;;;15.95;7.78;;;7.10;99.90;;;;;;5044918;28;20033;-74
2021/11/13 05:50:56;;;;;;;20.13;7.63;;;7.20;99.90;;;;;;5045776;28;20107;-76
2021/11/13 05:53:25;;;;;;;16.17;7.13;;;7.10;99.90;;;;;;5044967;28;20044;-76
2021/11/13 05:55:51;;;;;;;15.68;6.68;;;7.20;99.90;;;;;;5043143;28;20040;-75
2021/11/13 05:58:18;;;;;;;13.95;5.95;;;7.10;99.90;;;;;;5043332;28;20037;-74
2021/11/13 06:00:45;;;;;;;12.57;6.72;;;7.10;99.90;;;;;;5044476;28;20044;-76
2021/11/13 06:03:11;;;;;;;26.63;7.05;;;7.10;99.90;;;;;;5043104;28;20032;-76
2021/11/13 06:05:36;;;;;;;17.73;7.68;;;7.10;99.90;;;;;;5046807;28;20029;-77
2021/11/13 06:08:03;;;;;;;12.25;6.03;;;7.10;99.90;;;;;;5048607;28;20049;-78
2021/11/13 06:10:29;;;;;;;19.15;7.38;;;7.10;99.90;;;;;;5047084;28;20120;-78
2021/11/13 06:12:55;;;;;;;20.73;7.20;;;7.10;99.90;;;;;;5047284;28;20516;-75
2021/11/13 06:15:30;;;;;;;14.98;6.22;;;7.10;99.90;;;;;;5048227;28;20064;-75
2021/11/13 06:17:57;;;;;;;22.42;7.38;;;7.10;99.90;;;;;;5047182;28;20064;-78
2021/11/13 06:20:23;;;;;;;28.45;6.38;;;7.10;99.90;;;;;;5047260;28;20029;-77
2021/11/13 06:22:49;;;;;;;10.82;5.90;;;7.10;99.90;;;;;;5048267;28;20458;-76
2021/11/13 06:25:15;;;;;;;16.25;5.72;;;7.10;99.90;;;;;;5046613;28;20031;-74
2021/11/13 06:27:42;;;;;;;17.58;6.68;;;7.10;99.90;;;;;;5046433;28;20095;-75
2021/11/13 06:30:10;;;;;;;14.32;5.95;;;7.10;99.90;;;;;;5046593;28;20053;-75
2021/11/13 06:32:36;;;;;;;17.33;6.57;;;7.10;99.90;;;;;;5046389;28;20051;-77
2021/11/13 06:35:03;;;;;;;14.30;6.50;;;7.10;99.90;;;;;;5048119;28;20032;-76
2021/11/13 06:37:29;;;;;;;23.30;7.00;;;7.20;99.90;;;;;;5046684;28;20075;-77
2021/11/13 06:39:56;;;;;;;14.80;6.57;;;7.20;99.90;;;;;;5047837;28;20037;-76
2021/11/13 06:42:21;;;;;;;14.55;6.45;;;7.10;99.90;;;;;;5043984;28;20025;-76
2021/11/13 06:44:47;;;;;;;17.10;6.47;;;7.20;99.90;;;;;;5026576;28;20971;-77
2021/11/13 06:47:13;;;;;;;18.90;6.90;;;7.20;99.90;;;;;;5027528;28;20026;-77
2021/11/13 06:49:39;;;;;;;13.65;6.63;;;7.10;99.90;;;;;;5027550;28;20025;-77
2021/11/13 06:52:06;;;;;;;19.45;6.25;;;7.20;99.90;;;;;;5026429;28;20026;-78
2021/11/13 06:54:31;;;;;;;11.30;4.90;;;7.10;99.90;;;;;;5026251;28;20037;-77
2021/11/13 06:56:58;;;;;;;13.32;5.95;;;7.20;99.90;;;;;;5027884;28;20046;-77
2021/11/13 06:59:24;;;;;;;11.68;4.38;;;7.10;99.90;;;;;;5027792;28;20085;-75
2021/11/13 07:01:50;;;;;;;15.48;5.85;;;7.20;99.90;;;;;;5027628;28;20036;-77
2021/11/13 07:04:16;;;;;;;15.68;6.28;;;7.20;99.90;;;;;;5027592;28;20029;-75
2021/11/13 07:06:42;;;;;;;17.48;6.07;;;7.20;99.90;;;;;;5027567;28;20045;-77
2021/11/13 07:09:07;;;;;;;14.70;5.85;;;7.20;99.90;;;;;;5027078;28;20038;-76
2021/11/13 07:11:33;;;;;;;15.13;6.43;;;7.20;99.90;;;;;;5025984;28;20037;-75
2021/11/13 07:13:58;;;;;;;18.10;6.13;;;7.20;99.90;;;;;;5026001;28;20021;-77
2021/11/13 07:16:24;;;;;;;15.18;6.60;;;7.20;99.90;;;;;;5029939;28;20049;-76
2021/11/13 07:18:50;;;;;;;16.67;5.03;;;7.20;99.90;;;;;;5045972;28;20405;-82
2021/11/13 07:21:16;;;;;;;20.70;7.22;;;7.20;99.90;;;;;;5042115;28;20514;-75
2021/11/13 07:23:42;;;;;;;10.00;5.00;;;7.20;99.90;;;;;;5045447;28;20485;-75
2021/11/13 07:26:11;;;;;;;15.20;6.00;;;7.20;99.90;;;;;;5050980;28;20516;-76
2021/11/13 07:28:39;;;;;;;20.20;7.00;;;7.10;99.90;;;;;;5046231;28;20044;-77
2021/11/13 07:31:14;;;;;;;18.05;6.18;;;7.20;99.90;;;;;;5046178;28;20045;-76
2021/11/13 07:33:40;;;;;;;13.73;5.40;;;7.10;99.90;;;;;;5029146;28;20034;-77
2021/11/13 07:36:07;;;;;;;21.75;5.63;;;7.10;99.90;;;;;;5053286;28;20025;-77
2021/11/13 07:38:39;;;;;;;13.48;6.60;;;7.10;99.90;;;;;;5061848;28;20379;-77
2021/11/13 07:41:06;;;;;;;11.98;5.45;;;7.10;99.90;;;;;;5042466;28;20097;-78
2021/11/13 07:43:31;;;;;;;11.50;5.60;;;7.10;99.90;;;;;;5030053;28;20489;-79
2021/11/13 07:45:58;;;;;;;15.82;6.35;;;7.10;99.90;;;;;;5039196;28;20025;-77
2021/11/13 07:48:24;;;;;;;12.38;5.60;;;7.10;99.90;;;;;;5040827;28;20048;-74
2021/11/13 07:50:50;;;;;;;17.60;6.25;;;7.00;99.90;;;;;;5045211;28;20025;-76
2021/11/13 07:53:16;;;;;;;11.55;6.15;;;7.00;99.90;;;;;;5025220;28;20379;-78
2021/11/13 07:55:42;;;;;;;18.25;6.38;;;7.00;99.90;;;;;;5025416;28;20026;-76
2021/11/13 07:58:08;;;;;;;18.00;8.20;;;7.00;99.90;;;;;;5026564;28;20492;-76
2021/11/13 08:00:35;;;;;;;16.52;5.82;;;7.00;99.90;;;;;;5028475;28;20021;-76
2021/11/13 08:03:02;;;;;;;16.33;6.60;;;7.10;99.90;;;;;;5042568;28;20039;-75
2021/11/13 08:05:28;;;;;;;15.25;6.97;;;7.00;99.90;;;;;;5044197;28;20045;-77
2021/11/13 08:07:57;;;;;;;13.40;6.82;;;7.00;99.90;;;;;;5036094;28;20042;-78
2021/11/13 08:10:23;;;;;;;15.07;4.95;;;7.00;99.90;;;;;;5025496;28;20026;-76
2021/11/13 08:12:49;;;;;;;14.55;5.93;;;7.10;99.90;;;;;;5035339;28;20172;-77
2021/11/13 08:15:17;;;;;;;18.05;5.50;;;7.10;99.90;;;;;;5044260;28;20025;-76
2021/11/13 08:17:55;;;;;;;19.27;6.28;;;7.10;99.90;;;;;;5043034;28;20029;-79
2021/11/13 08:20:21;;;;;;;12.75;5.57;;;7.10;99.90;;;;;;5031445;28;20037;-79
2021/11/13 08:22:46;;;;;;;13.50;5.55;;;7.10;99.90;;;;;;5044247;28;20026;-77
2021/11/13 08:25:14;;;;;;;15.27;6.22;;;7.10;99.90;;;;;;5046016;28;20076;-77
2021/11/13 08:27:41;;;;;;;13.43;5.68;;;7.10;99.90;;;;;;5046593;28;20084;-77
2021/11/13 08:30:08;;;;;;;13.82;5.35;;;7.10;99.90;;;;;;5044573;28;20053;-76
2021/11/13 08:32:35;;;;;;;15.48;6.07;;;7.10;99.90;;;;;;5036083;28;20049;-79
2021/11/13 08:35:03;;;;;;;12.63;5.22;;;7.10;99.90;;;;;;5027134;28;20094;-78
2021/11/13 08:37:29;;;;;;;14.10;6.22;;;7.20;99.90;;;;;;5044104;28;20025;-78
2021/11/13 08:39:57;;;;;;;20.48;6.95;;;7.20;99.90;;;;;;5035409;28;20048;-77
2021/11/13 08:42:29;;;;;;;19.95;5.65;;;7.20;99.90;;;;;;5029927;28;20026;-78
2021/11/13 08:44:55;;;;;;;11.00;6.00;;;7.20;99.90;;;;;;5026499;28;20548;-78
2021/11/13 08:47:26;;;;;;;12.60;5.65;;;7.20;99.90;;;;;;5041174;28;20529;-79
2021/11/13 08:49:53;;;;;;;15.48;5.70;;;7.20;99.90;;;;;;5045580;28;20017;-76
2021/11/13 08:52:28;;;;;;;12.45;6.03;;;7.10;99.90;;;;;;5044106;28;20036;-78
2021/11/13 08:55:07;;;;;;;14.55;5.82;;;7.20;99.90;;;;;;5042605;28;20052;-81
2021/11/13 08:57:33;;;;;;;11.80;5.32;;;7.20;99.90;;;;;;5023416;28;20053;-80
2021/11/13 08:59:59;;;;;;;15.88;6.07;;;7.20;99.90;;;;;;5025064;28;20026;-79
2021/11/13 09:02:30;;;;;;;15.48;6.13;;;7.20;99.90;;;;;;5042671;28;20021;-77
2021/11/13 09:04:56;;;;;;;13.07;6.28;;;7.20;99.90;;;;;;5044305;28;20033;-79
2021/11/13 09:07:23;;;;;;;10.80;5.22;;;7.30;99.90;;;;;;5046290;28;20846;-77
2021/11/13 09:09:50;;;;;;;14.25;5.00;;;7.20;99.90;;;;;;5044512;28;20048;-80
2021/11/13 09:12:22;;;;;;;14.20;6.03;;;7.20;99.90;;;;;;5043368;28;20029;-77
2021/11/13 09:14:52;;;;;;;12.98;6.20;;;7.30;99.90;;;;;;5043106;28;20077;-77
2021/11/13 09:17:20;;;;;;;12.95;6.38;;;7.30;99.90;;;;;;5043011;28;20041;-77
2021/11/13 09:19:46;;;;;;;11.63;5.60;;;7.30;99.90;;;;;;5038613;28;20033;-76
2021/11/13 09:22:12;;;;;;;11.15;5.32;;;7.30;99.90;;;;;;5027978;28;20033;-77
2021/11/13 09:24:37;;;;;;;15.23;6.07;;;7.30;99.90;;;;;;5033336;28;20049;-76
2021/11/13 09:27:04;;;;;;;14.65;6.05;;;7.40;99.90;;;;;;5037480;28;20176;-77
2021/11/13 09:29:30;;;;;;;17.15;6.25;;;7.40;99.90;;;;;;5043887;28;20038;-78
2021/11/13 09:31:56;;;;;;;16.08;5.93;;;7.40;99.90;;;;;;5044207;28;20513;-79
2021/11/13 09:34:21;;;;;;;15.48;6.30;;;7.50;99.90;;;;;;5043685;28;20048;-75
2021/11/13 09:36:48;;;;;;;13.48;6.10;;;7.50;99.90;;;;;;5045351;28;20117;-76
2021/11/13 09:39:14;;;;;;;16.20;5.88;;;7.50;99.90;;;;;;5042549;28;20080;-77
2021/11/13 09:41:40;;;;;;;13.60;6.43;;;7.50;99.90;;;;;;5043191;28;20032;-78
2021/11/13 09:44:07;;;;;;;17.40;5.85;;;7.50;99.90;;;;;;5034209;28;20037;-77
2021/11/13 09:46:34;;;;;;;14.02;5.30;;;7.50;99.90;;;;;;5038210;28;20100;-78
2021/11/13 09:49:01;;;;;;;15.05;6.10;;;7.50;99.90;;;;;;5043513;28;20036;-77
2021/11/13 09:51:28;;;;;;;16.23;6.07;;;7.50;99.90;;;;;;5044997;28;20036;-79
2021/11/13 09:53:55;;;;;;;10.35;4.90;;;7.50;99.90;;;;;;5060408;28;20017;-78
2021/11/13 09:56:21;;;;;;;14.15;5.88;;;7.50;99.90;;;;;;5064772;28;20040;-78
2021/11/13 09:58:47;;;;;;;19.00;6.35;;;7.50;99.90;;;;;;5065006;28;20017;-77
2021/11/13 10:01:14;;;;;;;14.43;6.28;;;7.60;99.90;;;;;;5063589;28;20093;-77
2021/11/13 10:03:39;;;;;;;14.82;6.63;;;7.60;99.90;;;;;;5064880;28;20500;-77
2021/11/13 10:06:10;;;;;;;16.13;6.47;;;7.60;99.90;;;;;;5064952;28;20033;-79
2021/11/13 10:08:36;;;;;;;15.25;6.13;;;7.60;99.90;;;;;;5051674;28;20044;-78
2021/11/13 10:11:09;;;;;;;15.65;6.63;;;7.70;99.90;;;;;;5054125;28;20029;-79
2021/11/13 10:13:37;;;;;;;26.42;6.32;;;7.70;99.90;;;;;;5044515;28;20034;-80
2021/11/13 10:16:20;;;;;;;12.95;5.85;;;7.70;99.90;;;;;;5040305;28;20025;-79
2021/11/13 10:18:54;;;;;;;13.45;5.78;;;7.70;99.90;;;;;;5032182;28;20026;-77
2021/11/13 10:21:23;;;;;;;10.27;5.18;;;7.70;99.90;;;;;;5043583;28;20132;-77
2021/11/13 10:24:15;;;;;;;14.20;6.88;;;7.70;99.90;;;;;;5035993;28;20034;-78
2021/11/13 10:26:53;;;;;;;18.42;6.07;;;7.70;99.90;;;;;;5036512;28;20034;-78
2021/11/13 10:29:25;;;;;;;11.68;5.18;;;7.80;99.90;;;;;;5042068;28;20048;-77
2021/11/13 10:32:01;;;;;;;10.85;5.70;;;7.80;99.90;;;;;;5043206;28;20053;-77
2021/11/13 10:34:35;;;;;;;16.80;7.07;;;7.80;99.90;;;;;;5041446;28;20070;-78
2021/11/13 10:37:04;;;;;;;14.43;7.00;;;7.80;99.90;;;;;;5043230;28;20081;-77
2021/11/13 10:39:33;;;;;;;20.73;5.60;;;7.80;99.90;;;;;;5029295;28;20280;-76
2021/11/13 10:42:12;;;;;;;14.18;6.03;;;7.90;99.90;;;;;;5032797;28;20086;-77
2021/11/13 10:44:53;;;;;;;15.27;7.15;;;7.90;99.90;;;;;;5037634;28;20450;-76
2021/11/13 10:47:29;;;;;;;14.93;5.82;;;7.90;99.90;;;;;;5040787;28;20049;-77
2021/11/13 10:50:15;;;;;;;16.90;6.80;;;7.90;99.90;;;;;;5043003;28;20040;-78
2021/11/13 10:52:41;;;;;;;19.92;7.55;;;8.00;99.90;;;;;;5042225;28;20044;-77
2021/11/13 10:55:17;;;;;;;14.05;4.97;;;8.00;99.90;;;;;;5040627;28;20030;-79
2021/11/13 10:57:42;;;;;;;18.75;6.03;;;8.00;99.90;;;;;;5047102;28;20489;-78
2021/11/13 11:00:17;;;;;;;13.05;5.10;;;8.00;99.90;;;;;;5034090;28;20073;-80
2021/11/13 11:02:44;;;;;;;10.60;5.65;;;8.00;99.90;;;;;;5046199;28;20034;-78
2021/11/13 11:05:15;;;;;;;9.35;5.25;;;8.00;99.90;;;;;;5045754;28;20389;-78
2021/11/13 11:07:41;;;;;;;14.13;6.25;;;8.00;99.90;;;;;;5042918;28;20044;-80
2021/11/13 11:10:18;;;;;;;13.73;6.68;;;8.10;99.90;;;;;;5032436;28;20029;-77
2021/11/13 11:12:46;;;;;;;14.93;6.35;;;8.10;99.90;;;;;;5046257;28;20481;-77
2021/11/13 11:15:15;;;;;;;15.73;6.38;;;8.10;99.90;;;;;;5047956;28;20030;-80
2021/11/13 11:17:46;;;;;;;23.90;6.28;;;8.10;99.90;;;;;;5042601;28;20030;-77
2021/11/13 11:20:17;;;;;;;17.70;6.35;;;8.10;99.90;;;;;;5047659;28;20052;-78
2021/11/13 11:22:45;;;;;;;17.77;6.82;;;8.10;99.90;;;;;;5031672;28;20033;-79
2021/11/13 11:25:13;;;;;;;16.92;7.05;;;8.10;99.90;;;;;;5043271;28;20032;-79
2021/11/13 11:27:47;;;;;;;16.67;6.25;;;8.10;99.90;;;;;;5032356;28;20025;-77
2021/11/13 11:30:18;;;;;;;14.50;5.82;;;8.10;99.90;;;;;;5044477;28;20049;-79
2021/11/13 11:32:46;;;;;;;12.02;5.22;;;8.20;99.90;;;;;;5046768;28;20033;-78
2021/11/13 11:35:20;;;;;;;16.63;6.65;;;8.20;99.90;;;;;;5045350;28;20063;-78
2021/11/13 11:37:51;;;;;;;16.08;6.47;;;8.20;99.90;;;;;;5043187;28;20085;-77
2021/11/13 11:40:30;;;;;;;15.50;5.35;;;8.20;99.90;;;;;;5036152;28;20108;-79
2021/11/13 11:42:59;;;;;;;15.95;6.35;;;8.20;99.90;;;;;;5056749;28;20018;-78
2021/11/13 11:45:28;;;;;;;14.50;6.03;;;8.20;99.90;;;;;;5043962;28;20416;-79
2021/11/13 11:47:55;;;;;;;21.50;7.05;;;8.20;99.90;;;;;;5045252;28;20056;-76
2021/11/13 11:50:26;;;;;;;15.15;6.70;;;8.20;99.90;;;;;;5050466;28;20051;-77
2021/11/13 11:53:00;;;;;;;18.35;7.03;;;8.20;99.90;;;;;;5045370;28;20160;-76
2021/11/13 11:55:26;;;;;;;16.92;6.05;;;8.20;99.90;;;;;;5045321;28;20430;-79
2021/11/13 11:58:16;;;;;;;17.67;7.15;;;8.20;99.90;;;;;;5044418;28;20027;-78
2021/11/13 12:00:53;;;;;;;13.25;5.70;;;8.20;99.90;;;;;;5034222;28;20033;-79
2021/11/13 12:03:24;;;;;;;15.80;7.45;;;8.30;99.90;;;;;;5025391;28;20526;-76
2021/11/13 12:05:54;;;;;;;19.52;6.85;;;8.30;99.90;;;;;;5024614;28;20196;-77
2021/11/13 12:08:25;;;;;;;26.48;7.53;;;8.20;99.90;;;;;;5030175;28;20541;-77
2021/11/13 12:10:53;;;;;;;21.80;6.93;;;8.30;99.90;;;;;;5024663;28;20064;-79
2021/11/13 12:13:27;;;;;;;16.17;6.30;;;8.30;99.90;;;;;;5034889;28;20025;-77
2021/11/13 12:15:55;;;;;;;15.85;7.60;;;8.30;99.90;;;;;;5064528;28;20029;-78
2021/11/13 12:18:50;;;;;;;16.35;7.10;;;8.30;99.90;;;;;;5063706;28;20053;-78
2021/11/13 12:21:16;;;;;;;12.60;5.88;;;8.30;99.90;;;;;;5042962;28;20103;-78
2021/11/13 12:23:50;;;;;;;15.63;7.50;;;8.40;99.90;;;;;;5044629;28;20025;-78
2021/11/13 12:26:20;;;;;;;;;;;8.40;99.90;;;;;;5045054;28;20093;-79
2021/11/13 12:28:46;;;;;;;16.00;6.57;;;8.40;99.90;;;;;;5043794;28;19913;-78
2021/11/13 12:31:18;;;;;;;15.23;6.55;;;8.40;99.90;;;;;;5043391;28;20055;-78
2021/11/13 12:34:02;;;;;;;15.05;5.68;;;8.40;99.90;;;;;;5045270;28;20077;-78
2021/11/13 12:36:32;;;;;;;17.55;6.72;;;8.40;99.90;;;;;;5045601;28;20167;-80
2021/11/13 12:39:02;;;;;;;12.63;5.88;;;8.40;99.90;;;;;;5045385;28;20033;-78
2021/11/13 12:41:43;;;;;;;16.05;6.10;;;8.40;99.90;;;;;;5045711;28;20562;-79
2021/11/13 12:44:40;;;;;;;12.27;5.97;;;8.50;99.90;;;;;;5043842;28;20033;-79
2021/11/13 12:47:15;;;;;;;18.85;6.22;;;8.50;99.90;;;;;;5042274;28;20057;-78
2021/11/13 12:49:47;;;;;;;23.42;7.15;;;8.50;99.90;;;;;;5045295;28;20045;-81
2021/11/13 12:52:33;;;;;;;13.95;5.70;;;8.50;99.90;;;;;;5043428;28;20025;-78
2021/11/13 12:55:13;;;;;;;11.88;5.85;;;8.50;99.90;;;;;;5043901;28;20048;-79
2021/11/13 12:57:59;;;;;;;11.95;5.25;;;8.50;99.90;;;;;;5045015;28;20068;-77